createdAt,value
2023-05-21T00:03:56.498Z,13.65
2023-05-21T00:08:59.122Z,13.64
2023-05-21T00:14:01.697Z,13.64
2023-05-21T00:19:04.340Z,13.63
2023-05-21T00:24:07.455Z,13.61
2023-05-21T00:29:10.004Z,13.57
2023-05-21T00:34:13.724Z,13.52
2023-05-21T00:39:16.351Z,13.43
2023-05-21T00:44:19.598Z,13.33
2023-05-21T00:49:24.353Z,13.27
2023-05-21T00:54:28.033Z,13.22
2023-05-21T00:59:32.185Z,13.20
2023-05-21T01:04:35.427Z,13.21
2023-05-21T01:09:39.341Z,13.22
2023-05-21T01:14:42.605Z,13.22
2023-05-21T01:19:45.266Z,13.21
2023-05-21T01:24:51.111Z,13.20
2023-05-21T01:29:53.901Z,13.18
2023-05-21T01:35:04.435Z,13.15
2023-05-21T01:40:33.238Z,13.13
2023-05-21T01:45:39.699Z,13.10
2023-05-21T01:50:45.818Z,13.09
2023-05-21T01:55:48.689Z,13.09
2023-05-21T02:00:51.746Z,13.09
2023-05-21T02:05:55.598Z,13.10
2023-05-21T02:10:58.232Z,13.10
2023-05-21T02:16:01.533Z,13.10
2023-05-21T02:21:04.128Z,13.09
2023-05-21T02:26:06.683Z,13.08
2023-05-21T02:31:09.225Z,13.04
2023-05-21T02:36:15.509Z,13.02
2023-05-21T02:41:18.108Z,13.00
2023-05-21T02:46:20.776Z,12.99
2023-05-21T02:51:23.460Z,13.03
2023-05-21T02:56:26.050Z,13.11
2023-05-21T03:01:28.599Z,13.17
2023-05-21T03:06:32.576Z,13.26
2023-05-21T03:11:35.067Z,13.39
2023-05-21T03:16:38.086Z,13.56
2023-05-21T03:21:41.705Z,13.71
2023-05-21T03:26:44.305Z,13.87
2023-05-21T03:31:46.964Z,14.05
2023-05-21T03:36:49.680Z,14.25
2023-05-21T03:41:52.205Z,14.36
2023-05-21T03:46:54.718Z,14.38
2023-05-21T03:51:57.528Z,14.30
2023-05-21T03:57:00.109Z,14.21
2023-05-21T04:02:03.029Z,14.18
2023-05-21T04:07:05.562Z,14.22
2023-05-21T04:12:08.746Z,14.31
2023-05-21T04:17:12.561Z,14.44
2023-05-21T04:22:15.167Z,14.58
2023-05-21T04:27:17.727Z,14.70
2023-05-21T04:32:20.795Z,14.79
2023-05-21T04:37:26.115Z,14.89
2023-05-21T04:42:29.995Z,14.96
2023-05-21T04:47:35.827Z,15.06
2023-05-21T04:52:40.126Z,15.20
2023-05-21T04:57:42.617Z,15.39
2023-05-21T05:07:48.111Z,21.87
2023-05-21T05:12:50.979Z,25.26
2023-05-21T05:17:54.580Z,27.70
2023-05-21T05:22:57.333Z,29.51
2023-05-21T05:27:59.966Z,31.15
2023-05-21T05:33:02.574Z,32.60
2023-05-21T05:38:05.711Z,33.38
2023-05-21T05:43:08.948Z,34.25
2023-05-21T05:48:12.066Z,35.36
2023-05-21T05:53:14.674Z,36.38
2023-05-21T05:58:17.269Z,37.01
2023-05-21T06:03:19.965Z,37.26
2023-05-21T06:08:23.318Z,37.52
2023-05-21T06:13:25.945Z,38.40
2023-05-21T06:18:28.465Z,38.88
2023-05-21T06:23:32.576Z,39.05
2023-05-21T06:28:36.289Z,39.27
2023-05-21T06:33:38.963Z,39.96
2023-05-21T06:38:42.707Z,40.52
2023-05-21T06:43:45.382Z,40.58
2023-05-21T06:48:50.024Z,40.71
2023-05-21T06:53:52.919Z,40.85
2023-05-21T06:58:55.559Z,40.73
2023-05-21T07:03:58.294Z,40.84
2023-05-21T07:09:02.159Z,41.15
2023-05-21T07:14:04.794Z,41.16
2023-05-21T07:19:07.475Z,41.15
2023-05-21T07:24:10.119Z,41.26
2023-05-21T07:29:12.760Z,41.04
2023-05-21T07:34:15.882Z,40.65
2023-05-21T07:39:18.434Z,40.28
2023-05-21T07:44:20.930Z,39.77
2023-05-21T07:49:23.597Z,39.20
2023-05-21T07:54:26.331Z,38.60
2023-05-21T07:59:28.971Z,38.24
2023-05-21T08:04:31.826Z,37.80
2023-05-21T08:09:34.521Z,37.17
2023-05-21T08:14:37.054Z,36.68
2023-05-21T08:19:39.650Z,36.15
2023-05-21T08:24:42.222Z,35.71
2023-05-21T08:29:44.859Z,35.18
2023-05-21T08:34:47.397Z,34.52
2023-05-21T08:39:49.939Z,34.08
2023-05-21T08:44:59.284Z,33.34
2023-05-21T08:50:05.501Z,32.76
2023-05-21T08:55:09.022Z,32.38
2023-05-21T09:00:12.050Z,32.13
2023-05-21T09:05:15.459Z,31.82
2023-05-21T09:10:21.679Z,31.54
2023-05-21T09:15:24.476Z,31.23
2023-05-21T09:20:28.245Z,31.19
2023-05-21T09:25:31.635Z,31.09
2023-05-21T09:30:36.102Z,30.65
2023-05-21T09:35:46.246Z,30.27
2023-05-21T09:40:48.782Z,29.89
2023-05-21T09:45:56.919Z,29.30
2023-05-21T09:51:17.117Z,28.93
2023-05-21T09:56:24.867Z,28.72
2023-05-21T10:01:30.799Z,28.44
2023-05-21T10:06:43.142Z,28.16
2023-05-21T10:11:49.061Z,28.04
2023-05-21T10:16:54.077Z,27.57
2023-05-21T10:21:57.107Z,27.40
2023-05-21T10:27:01.775Z,27.57
2023-05-21T10:32:05.900Z,27.57
2023-05-21T10:37:10.687Z,27.28
2023-05-21T10:42:35.578Z,27.14
2023-05-21T10:48:01.706Z,27.18
2023-05-21T10:53:36.601Z,27.31
2023-05-21T10:59:05.130Z,27.27
2023-05-21T11:04:09.763Z,27.32
2023-05-21T11:09:13.674Z,27.15
2023-05-21T11:14:35.292Z,26.97
2023-05-21T11:19:39.212Z,27.01
2023-05-21T11:24:43.074Z,27.10
2023-05-21T11:29:47.451Z,27.24
2023-05-21T11:34:50.412Z,26.97
2023-05-21T11:39:54.582Z,26.69
2023-05-21T11:44:59.152Z,26.63
2023-05-21T11:50:04.468Z,26.70
2023-05-21T11:55:07.479Z,26.89
2023-05-21T12:00:15.220Z,26.98
2023-05-21T12:05:17.973Z,26.90
2023-05-21T12:10:22.256Z,26.85
2023-05-21T12:15:26.738Z,26.87
2023-05-21T12:20:30.028Z,26.96
2023-05-21T12:25:35.639Z,26.93
2023-05-21T12:30:38.346Z,26.90
2023-05-21T12:35:41.264Z,26.94
2023-05-21T12:40:45.440Z,27.02
2023-05-21T12:45:48.155Z,27.04
2023-05-21T12:50:52.217Z,26.89
2023-05-21T12:56:07.954Z,26.87
2023-05-21T13:01:12.069Z,26.71
2023-05-21T13:06:14.702Z,26.69
2023-05-21T13:11:17.385Z,26.69
2023-05-21T13:16:21.946Z,26.62
2023-05-21T13:21:24.675Z,26.53
2023-05-21T13:26:27.306Z,26.52
2023-05-21T13:31:29.831Z,26.62
2023-05-21T13:36:32.494Z,26.81
2023-05-21T13:41:35.079Z,26.88
2023-05-21T13:46:39.510Z,26.90
2023-05-21T13:51:43.420Z,26.86
2023-05-21T13:56:45.931Z,26.77
2023-05-21T14:01:49.816Z,26.73
2023-05-21T14:06:52.667Z,26.75
2023-05-21T14:11:56.094Z,26.78
2023-05-21T14:16:58.991Z,26.86
2023-05-21T14:22:01.792Z,26.93
2023-05-21T14:27:04.403Z,26.80
2023-05-21T14:32:07.754Z,26.51
2023-05-21T14:37:10.669Z,26.29
2023-05-21T14:42:13.185Z,26.25
2023-05-21T14:47:15.775Z,26.35
2023-05-21T14:52:18.682Z,26.45
2023-05-21T14:57:21.321Z,26.39
2023-05-21T15:02:24.344Z,26.42
2023-05-21T15:07:27.033Z,26.39
2023-05-21T15:12:30.594Z,26.25
2023-05-21T15:17:33.988Z,26.17
2023-05-21T15:22:36.753Z,26.12
2023-05-21T15:27:39.268Z,26.05
2023-05-21T15:32:42.375Z,25.96
2023-05-21T15:37:45.568Z,25.89
2023-05-21T15:42:48.215Z,25.87
2023-05-21T15:47:50.992Z,25.81
2023-05-21T15:52:53.813Z,25.63
2023-05-21T15:57:56.360Z,25.50
2023-05-21T16:02:58.940Z,25.39
2023-05-21T16:08:01.524Z,25.33
2023-05-21T16:13:04.066Z,25.30
2023-05-21T16:18:08.239Z,25.20
2023-05-21T16:23:12.067Z,25.06
2023-05-21T16:28:14.792Z,24.92
2023-05-21T16:33:17.636Z,24.76
2023-05-21T16:38:21.314Z,24.58
2023-05-21T16:43:23.875Z,24.37
2023-05-21T16:48:26.359Z,24.23
2023-05-21T16:53:28.922Z,24.16
2023-05-21T16:58:33.160Z,24.10
2023-05-21T17:03:36.520Z,24.03
2023-05-21T17:08:39.350Z,23.88
2023-05-21T17:13:42.148Z,23.64
2023-05-21T17:18:44.720Z,23.41
2023-05-21T17:23:47.572Z,23.20
2023-05-21T17:28:50.131Z,23.02
2023-05-21T17:33:52.796Z,22.92
2023-05-21T17:38:55.712Z,22.84
2023-05-21T17:43:58.336Z,22.76
2023-05-21T17:49:03.602Z,22.63
2023-05-21T17:54:07.965Z,22.49
2023-05-21T17:59:11.587Z,22.32
2023-05-21T18:04:14.153Z,22.17
2023-05-21T18:09:16.933Z,22.03
2023-05-21T18:14:19.592Z,21.88
2023-05-21T18:19:22.144Z,21.69
2023-05-21T18:24:24.764Z,21.49
2023-05-21T18:29:27.253Z,21.25
2023-05-21T18:34:30.504Z,21.01
2023-05-21T18:39:33.088Z,20.78
2023-05-21T18:44:35.593Z,20.57
2023-05-21T18:49:38.844Z,20.36
2023-05-21T18:54:41.347Z,20.16
2023-05-21T18:59:44.246Z,19.96
2023-05-21T19:04:47.129Z,19.76
2023-05-21T19:09:49.847Z,19.59
2023-05-21T19:14:52.430Z,19.42
2023-05-21T19:19:57.568Z,19.28
2023-05-21T19:25:00.717Z,19.16
2023-05-21T19:30:04.131Z,19.02
2023-05-21T19:35:07.702Z,18.89
2023-05-21T19:40:10.633Z,18.77
2023-05-21T19:45:15.423Z,18.63
2023-05-21T19:50:19.026Z,18.50
2023-05-21T19:55:22.642Z,18.37
2023-05-21T20:00:27.300Z,18.25
2023-05-21T20:05:29.816Z,18.12
2023-05-21T20:10:32.602Z,17.99
2023-05-21T20:15:36.119Z,17.82
2023-05-21T20:20:39.249Z,17.63
2023-05-21T20:25:42.118Z,17.40
2023-05-21T20:31:02.460Z,17.18
2023-05-21T20:36:05.460Z,16.95
2023-05-21T20:41:08.025Z,16.72
2023-05-21T20:46:10.954Z,16.49
2023-05-21T20:51:13.874Z,16.28
2023-05-21T20:56:21.770Z,16.07
2023-05-21T21:01:30.353Z,15.87
2023-05-21T21:06:33.740Z,15.70
2023-05-21T21:11:36.795Z,15.54
2023-05-21T21:16:39.377Z,15.40
2023-05-21T21:21:42.009Z,15.24
2023-05-21T21:26:44.529Z,15.08
2023-05-21T21:31:47.565Z,14.92
2023-05-21T21:36:50.893Z,14.78
2023-05-21T21:41:53.675Z,14.66
2023-05-21T21:46:56.228Z,14.56
2023-05-21T21:51:58.805Z,14.47
2023-05-21T21:57:01.353Z,14.38
2023-05-21T22:02:04.404Z,14.30
2023-05-21T22:07:10.681Z,14.21
2023-05-21T22:12:13.740Z,14.13
2023-05-21T22:17:17.724Z,14.05
2023-05-21T22:22:20.261Z,13.98
2023-05-21T22:27:22.799Z,13.91
2023-05-21T22:32:25.410Z,13.87
2023-05-21T22:37:28.325Z,13.82
2023-05-21T22:42:30.897Z,13.75
2023-05-21T22:47:33.639Z,13.67
2023-05-21T22:52:38.014Z,13.57
2023-05-21T22:57:40.720Z,13.47
2023-05-21T23:02:43.241Z,13.40
2023-05-21T23:07:45.995Z,13.35
2023-05-21T23:12:48.516Z,13.32
2023-05-21T23:17:51.105Z,13.30
2023-05-21T23:22:53.742Z,13.28
2023-05-21T23:27:56.244Z,13.23
2023-05-21T23:32:59.425Z,13.12
2023-05-21T23:38:02.116Z,12.99
2023-05-21T23:43:04.862Z,12.86
2023-05-21T23:48:07.740Z,12.73
2023-05-21T23:53:10.559Z,12.62
2023-05-21T23:58:13.098Z,12.52
